Time;durP1;ratioP1;P1;durP2;ratioP2;P2;SDS_P1;SDS_P2;PMS_P1;PMS_P2;Temp;Humidity;BMP_temperature;BMP_pressure;BME280_temperature;BME280_humidity;BME280_pressure;Samples;Min_cycle;Max_cycle;Signal;HPM_P1;HPM_P2
2021/03/02 00:01:56;;;;;;;64.85;27.00;;;;;;;4.17;60.12;101865.31;4380286;32;34057;-83
2021/03/02 00:04:23;;;;;;;56.58;26.62;;;;;;;4.08;60.51;101865.16;4406014;32;33238;-83
2021/03/02 00:06:51;;;;;;;54.70;26.25;;;;;;;4.24;59.58;101864.56;4393363;32;33729;-83
2021/03/02 00:09:19;;;;;;;51.00;23.17;;;;;;;4.32;59.12;101869.88;4405777;32;35027;-84
2021/03/02 00:11:48;;;;;;;53.75;25.73;;;;;;;4.11;60.00;101868.72;4385181;32;33604;-84
2021/03/02 00:14:16;;;;;;;51.75;24.48;;;;;;;4.25;59.70;101865.44;4379439;32;33272;-84
2021/03/02 00:16:46;;;;;;;48.83;22.90;;;;;;;4.15;59.46;101866.16;4393263;32;34489;-84
2021/03/02 00:19:18;;;;;;;42.45;21.55;;;;;;;4.29;58.83;101862.03;4381202;32;33308;-83
2021/03/02 00:21:51;;;;;;;41.70;21.02;;;;;;;4.24;58.81;101861.94;4390163;32;33856;-83
2021/03/02 00:24:37;;;;;;;42.60;19.80;;;;;;;4.29;58.52;101855.03;4380742;32;32808;-84
2021/03/02 00:27:05;;;;;;;37.40;18.77;;;;;;;4.27;58.78;101859.38;4391226;32;33388;-83
2021/03/02 00:29:34;;;;;;;37.47;18.23;;;;;;;4.27;59.39;101856.78;4406626;32;33361;-83
2021/03/02 00:32:01;;;;;;;43.08;19.80;;;;;;;4.16;59.48;101858.31;4380747;32;33895;-83
2021/03/02 00:34:29;;;;;;;42.10;19.87;;;;;;;3.79;60.73;101852.50;4380686;32;33938;-84
2021/03/02 00:36:57;;;;;;;40.08;19.65;;;;;;;3.78;61.07;101855.97;4367994;32;34322;-83
2021/03/02 00:39:24;;;;;;;37.08;18.60;;;;;;;3.85;60.21;101852.62;4382742;32;34365;-83
2021/03/02 00:41:51;;;;;;;36.60;19.67;;;;;;;3.94;59.77;101854.50;4382047;32;34881;-83
2021/03/02 00:44:19;;;;;;;38.95;19.75;;;;;;;4.06;59.31;101851.19;4381001;32;33286;-84
2021/03/02 00:46:47;;;;;;;39.95;19.48;;;;;;;4.09;59.43;101846.03;4392784;32;33422;-84
2021/03/02 00:49:15;;;;;;;39.42;18.70;;;;;;;4.06;59.35;101851.19;4380294;32;33906;-84
2021/03/02 00:51:43;;;;;;;45.03;18.95;;;;;;;3.95;59.71;101848.44;4390484;32;34600;-84
2021/03/02 00:54:10;;;;;;;32.03;16.48;;;;;;;3.91;59.89;101845.72;4407406;32;34673;-84
2021/03/02 00:56:37;;;;;;;30.67;16.00;;;;;;;3.68;60.86;101848.84;4382038;32;33057;-85
2021/03/02 00:59:05;;;;;;;30.55;16.90;;;;;;;3.88;60.00;101846.56;4368309;32;34813;-83
2021/03/02 01:01:33;;;;;;;31.92;16.27;;;;;;;3.96;59.66;101844.94;4381552;32;35353;-83
2021/03/02 01:04:04;;;;;;;29.63;15.48;;;;;;;4.00;59.47;101845.88;4390751;32;35317;-83
2021/03/02 01:06:32;;;;;;;30.98;15.57;;;;;;;3.81;59.95;101849.94;4369267;32;34101;-83
2021/03/02 01:09:00;;;;;;;33.42;15.07;;;;;;;4.00;59.30;101840.66;4394243;32;35277;-83
2021/03/02 01:11:28;;;;;;;27.33;14.73;;;;;;;3.97;59.62;101840.59;4379928;32;36709;-83
2021/03/02 01:13:56;;;;;;;32.25;15.30;;;;;;;3.96;59.35;101838.84;4394829;32;33184;-83
2021/03/02 01:16:23;;;;;;;25.23;13.82;;;;;;;3.77;60.37;101835.94;4388055;32;33779;-83
2021/03/02 01:18:50;;;;;;;24.58;13.52;;;;;;;3.61;60.87;101831.31;4384665;32;35016;-83
2021/03/02 01:21:18;;;;;;;21.92;12.18;;;;;;;3.60;60.98;101832.12;4394602;32;33392;-83
2021/03/02 01:23:45;;;;;;;24.98;13.55;;;;;;;3.71;60.28;101825.38;4380007;32;32961;-83
2021/03/02 01:26:13;;;;;;;22.58;12.82;;;;;;;3.84;59.53;101832.53;4376438;32;34426;-83
2021/03/02 01:28:40;;;;;;;23.15;13.13;;;;;;;3.85;59.42;101825.63;4379968;32;33817;-83
2021/03/02 01:31:08;;;;;;;23.42;13.50;;;;;;;3.79;59.90;101826.37;4391331;32;34534;-83
2021/03/02 01:33:35;;;;;;;19.90;11.82;;;;;;;3.59;60.42;101833.00;4388874;32;32922;-83
2021/03/02 01:36:03;;;;;;;28.40;13.62;;;;;;;3.82;59.79;101833.37;4380493;32;35462;-84
2021/03/02 01:38:31;;;;;;;19.52;10.90;;;;;;;3.54;60.60;101826.81;4394453;32;34917;-83
2021/03/02 01:40:58;;;;;;;20.90;11.88;;;;;;;3.54;60.08;101818.97;4393355;32;35426;-82
2021/03/02 01:43:36;;;;;;;22.65;12.65;;;;;;;3.51;60.52;101821.53;4407096;32;32250;-83
2021/03/02 01:46:05;;;;;;;21.52;12.55;;;;;;;3.58;59.96;101815.56;4395513;32;33516;-83
2021/03/02 01:48:39;;;;;;;22.48;12.70;;;;;;;3.66;59.67;101821.81;4392010;32;33661;-82
2021/03/02 01:51:08;;;;;;;23.55;11.80;;;;;;;3.57;60.17;101819.91;4392943;32;35339;-82
2021/03/02 01:53:37;;;;;;;24.63;12.00;;;;;;;3.22;61.60;101819.28;4382336;32;32919;-82
2021/03/02 01:56:04;;;;;;;24.70;11.88;;;;;;;3.31;61.03;101824.66;4393799;32;33317;-83
2021/03/02 01:58:33;;;;;;;21.98;12.00;;;;;;;3.25;60.89;101826.31;4383795;32;34990;-83
2021/03/02 02:01:08;;;;;;;21.20;10.95;;;;;;;3.43;60.20;101817.94;4388440;32;36048;-84
2021/03/02 02:03:46;;;;;;;16.45;9.63;;;;;;;3.57;59.55;101806.00;4394304;32;33522;-84
2021/03/02 02:06:28;;;;;;;17.08;10.80;;;;;;;3.51;60.23;101814.59;4385306;32;34100;-85
2021/03/02 02:09:20;;;;;;;20.02;10.32;;;;;;;3.32;60.62;101808.19;4405864;32;34667;-86
2021/03/02 02:12:12;;;;;;;26.75;10.77;;;;;;;3.49;59.99;101805.84;4396041;32;34026;-84
2021/03/02 02:14:44;;;;;;;20.70;11.12;;;;;;;3.49;60.25;101797.13;4394315;32;32189;-84
2021/03/02 02:17:19;;;;;;;23.58;11.40;;;;;;;3.25;61.03;101803.69;4386846;32;34197;-85
2021/03/02 02:19:52;;;;;;;22.10;10.38;;;;;;;3.34;60.34;101790.78;4387270;32;33822;-85
2021/03/02 02:22:49;;;;;;;21.73;12.15;;;;;;;3.29;59.87;101795.06;4376382;32;34584;-85
2021/03/02 02:25:32;;;;;;;20.65;11.40;;;;;;;3.34;59.90;101800.34;4382102;32;33993;-85
2021/03/02 02:28:00;;;;;;;18.52;10.30;;;;;;;3.14;61.20;101812.19;4388135;32;33762;-85
2021/03/02 02:30:30;;;;;;;22.42;12.55;;;;;;;3.24;60.47;101808.88;4367831;32;34945;-84
2021/03/02 02:32:58;;;;;;;20.55;11.95;;;;;;;3.16;60.10;101808.72;4386688;32;33244;-85
2021/03/02 02:35:27;;;;;;;20.25;11.77;;;;;;;3.32;59.71;101804.66;4385054;32;32886;-84
2021/03/02 02:38:00;;;;;;;21.08;11.35;;;;;;;3.15;60.14;101809.59;4385808;32;34323;-83
2021/03/02 02:40:27;;;;;;;20.02;10.07;;;;;;;3.03;60.54;101822.38;4371282;32;34353;-83
2021/03/02 02:42:57;;;;;;;20.90;11.23;;;;;;;3.53;59.32;101809.41;4388280;32;33747;-83
2021/03/02 02:45:30;;;;;;;20.55;10.90;;;;;;;3.33;60.39;101825.59;4382664;32;34147;-83
2021/03/02 02:47:58;;;;;;;21.25;10.55;;;;;;;3.15;61.03;101820.03;4385067;32;33552;-82
2021/03/02 02:50:25;;;;;;;19.87;11.00;;;;;;;3.10;61.25;101824.28;4378003;32;33332;-83
2021/03/02 02:52:53;;;;;;;21.52;11.15;;;;;;;3.07;61.50;101826.81;4380608;32;34860;-82
2021/03/02 02:55:27;;;;;;;17.33;9.80;;;;;;;3.07;61.14;101821.59;4367162;32;34205;-82
2021/03/02 02:57:54;;;;;;;20.23;9.70;;;;;;;3.18;60.43;101821.78;4385412;32;33701;-82
2021/03/02 03:00:23;;;;;;;16.98;9.73;;;;;;;2.97;60.79;101824.88;4368446;32;33797;-82
2021/03/02 03:02:52;;;;;;;21.15;10.60;;;;;;;2.97;60.87;101828.38;4397391;32;33975;-82
2021/03/02 03:05:24;;;;;;;19.35;10.00;;;;;;;2.94;61.22;101830.91;4367500;32;34062;-82
2021/03/02 03:08:03;;;;;;;17.50;9.25;;;;;;;2.84;61.43;101823.75;4368188;32;33544;-82
2021/03/02 03:10:30;;;;;;;18.33;9.63;;;;;;;2.95;61.31;101826.59;4379006;32;34406;-82
2021/03/02 03:13:06;;;;;;;17.48;10.05;;;;;;;3.02;61.16;101825.84;4383631;32;33695;-82
2021/03/02 03:15:35;;;;;;;18.08;11.23;;;;;;;2.85;61.66;101827.25;4365616;32;33182;-82
2021/03/02 03:18:07;;;;;;;19.23;10.60;;;;;;;2.83;62.06;101830.69;4366270;32;33667;-82
2021/03/02 03:20:35;;;;;;;19.80;10.32;;;;;;;3.08;60.99;101831.19;4380426;32;34495;-83
2021/03/02 03:23:04;;;;;;;21.52;11.63;;;;;;;2.84;61.60;101828.97;4380905;32;34633;-83
2021/03/02 03:25:32;;;;;;;17.37;10.18;;;;;;;2.92;61.17;101826.53;4386664;32;33233;-83
2021/03/02 03:28:01;;;;;;;19.00;10.52;;;;;;;2.97;61.30;101827.50;4393709;32;33601;-83
2021/03/02 03:30:31;;;;;;;20.85;10.05;;;;;;;2.93;61.15;101825.66;4393126;32;33266;-83
2021/03/02 03:33:00;;;;;;;18.65;10.40;;;;;;;3.14;60.39;101823.50;4385405;32;34178;-83
2021/03/02 03:35:28;;;;;;;19.30;10.00;;;;;;;3.09;60.71;101830.34;4381044;32;33065;-82
2021/03/02 03:37:56;;;;;;;25.17;10.38;;;;;;;2.95;60.72;101832.69;4386796;32;33442;-82
2021/03/02 03:40:23;;;;;;;17.45;8.77;;;;;;;2.98;60.69;101827.50;4400738;32;35351;-83
2021/03/02 03:42:50;;;;;;;18.17;8.80;;;;;;;2.94;60.70;101830.03;4393265;32;33857;-83
2021/03/02 03:45:18;;;;;;;19.73;9.43;;;;;;;2.92;60.67;101832.63;4393888;32;33457;-83
2021/03/02 03:47:45;;;;;;;16.98;9.57;;;;;;;3.04;60.25;101827.66;4379696;32;37031;-82
2021/03/02 03:50:13;;;;;;;21.27;10.60;;;;;;;2.92;60.20;101823.91;4393647;32;33548;-83
2021/03/02 03:52:48;;;;;;;15.55;9.50;;;;;;;2.90;60.09;101828.25;4418582;32;34226;-83
2021/03/02 03:55:18;;;;;;;16.08;9.45;;;;;;;2.98;60.25;101821.41;4380835;32;33772;-83
2021/03/02 03:57:47;;;;;;;19.58;10.45;;;;;;;2.72;61.10;101834.84;4386050;32;35349;-82
2021/03/02 04:00:15;;;;;;;23.48;11.32;;;;;;;2.86;61.11;101829.03;4393366;32;33562;-83
2021/03/02 04:02:42;;;;;;;21.40;9.90;;;;;;;2.63;62.04;101829.41;4405959;32;33622;-83
2021/03/02 04:05:11;;;;;;;20.00;10.45;;;;;;;2.91;61.09;101830.00;4393551;32;33260;-83
2021/03/02 04:07:38;;;;;;;24.50;10.82;;;;;;;2.81;61.36;101824.59;4393808;32;33285;-83
2021/03/02 04:10:07;;;;;;;26.27;9.75;;;;;;;2.82;61.41;101821.13;4379857;32;33126;-83
2021/03/02 04:12:46;;;;;;;20.02;10.48;;;;;;;2.81;61.70;101819.38;4403696;32;35141;-82
2021/03/02 04:15:27;;;;;;;;;;;;;;;2.67;61.45;101814.72;4382800;32;34145;-82
2021/03/02 04:17:57;;;;;;;15.63;8.48;;;;;;;2.86;61.17;101821.19;4405627;32;35032;-84
2021/03/02 04:20:25;;;;;;;18.62;9.75;;;;;;;3.06;60.44;101814.62;4405236;32;33435;-84
2021/03/02 04:22:55;;;;;;;20.42;9.32;;;;;;;2.94;60.53;101810.03;4380254;32;32643;-84
2021/03/02 04:25:23;;;;;;;19.35;9.77;;;;;;;2.87;61.01;101812.50;4404640;32;33934;-84
2021/03/02 04:27:50;;;;;;;18.42;9.85;;;;;;;2.82;61.29;101815.03;4380337;32;34051;-84
2021/03/02 04:30:18;;;;;;;19.37;10.07;;;;;;;2.77;61.07;101814.94;4404556;32;33270;-84
2021/03/02 04:32:45;;;;;;;21.30;10.30;;;;;;;2.67;61.24;101814.72;4392889;32;33574;-83
2021/03/02 04:35:13;;;;;;;21.27;9.73;;;;;;;3.10;60.23;101811.22;4392994;32;33418;-83
2021/03/02 04:37:41;;;;;;;18.67;9.80;;;;;;;2.78;61.79;101814.09;4388372;32;33712;-84
2021/03/02 04:40:09;;;;;;;20.67;11.00;;;;;;;2.79;61.47;101817.56;4392888;32;33650;-83
2021/03/02 04:42:36;;;;;;;23.02;9.52;;;;;;;2.76;61.07;101820.13;4405080;32;35421;-84
2021/03/02 04:45:05;;;;;;;20.90;10.05;;;;;;;2.62;61.52;101822.44;4390833;32;33324;-83
2021/03/02 04:47:33;;;;;;;25.73;10.85;;;;;;;2.76;61.45;101813.19;4391487;32;34605;-84
2021/03/02 04:50:02;;;;;;;16.90;9.45;;;;;;;2.72;61.29;101818.31;4381500;32;33740;-84
2021/03/02 04:52:29;;;;;;;16.92;10.18;;;;;;;2.73;61.32;101810.50;4391627;32;33858;-84
2021/03/02 04:54:56;;;;;;;22.80;10.55;;;;;;;2.79;61.17;101813.22;4389931;32;33164;-84
2021/03/02 04:57:24;;;;;;;21.50;9.95;;;;;;;2.92;60.50;101816.09;4380745;32;34121;-83
2021/03/02 04:59:51;;;;;;;18.62;10.23;;;;;;;3.04;60.26;101813.72;4379752;32;33475;-84
2021/03/02 05:02:18;;;;;;;21.00;9.90;;;;;;;2.75;61.12;101814.03;4381073;32;35097;-84
2021/03/02 05:04:46;;;;;;;21.20;10.68;;;;;;;2.69;60.75;101819.09;4404695;32;33985;-84
2021/03/02 05:07:14;;;;;;;23.62;10.80;;;;;;;2.60;61.67;101818.03;4392139;32;34463;-84
2021/03/02 05:09:41;;;;;;;21.02;10.63;;;;;;;2.70;61.24;101813.03;4391405;32;33519;-83
2021/03/02 05:12:08;;;;;;;21.87;9.77;;;;;;;2.59;61.64;101816.28;4401464;32;32693;-83
2021/03/02 05:14:36;;;;;;;22.10;10.07;;;;;;;2.63;61.50;101812.91;4379120;32;33113;-83
2021/03/02 05:17:03;;;;;;;17.48;10.00;;;;;;;2.66;60.97;101812.94;4379732;32;34131;-83
2021/03/02 05:19:31;;;;;;;21.02;10.00;;;;;;;2.79;60.34;101801.91;4391861;32;33738;-83
2021/03/02 05:21:59;;;;;;;21.25;9.70;;;;;;;2.96;59.68;101807.47;4377535;32;35543;-82
2021/03/02 05:24:26;;;;;;;19.35;9.32;;;;;;;2.70;60.28;101817.38;4376298;32;33302;-82
2021/03/02 05:26:53;;;;;;;21.95;10.68;;;;;;;2.74;60.03;101812.25;4376679;32;33029;-83
2021/03/02 05:29:21;;;;;;;19.05;9.45;;;;;;;2.70;60.25;101814.75;4378463;32;33407;-82
2021/03/02 05:31:48;;;;;;;19.00;9.52;;;;;;;2.64;60.82;101814.66;4376471;32;34886;-82
2021/03/02 05:34:16;;;;;;;22.25;11.25;;;;;;;2.51;61.19;101810.88;4389507;32;34167;-83
2021/03/02 05:36:43;;;;;;;23.65;10.35;;;;;;;2.44;60.85;101811.62;4365987;32;33946;-82
2021/03/02 05:39:10;;;;;;;24.45;10.63;;;;;;;2.51;60.99;101818.72;4391007;32;33536;-83
2021/03/02 05:41:41;;;;;;;32.50;12.57;;;;;;;2.47;61.76;101824.72;4379059;32;35533;-83
2021/03/02 05:44:15;;;;;;;21.98;10.38;;;;;;;2.52;61.34;101815.28;4378244;32;34051;-83
2021/03/02 05:46:42;;;;;;;24.17;11.75;;;;;;;2.15;62.09;101819.69;4379036;32;34614;-82
2021/03/02 05:49:11;;;;;;;22.83;10.63;;;;;;;2.46;60.93;101823.81;4377477;32;33426;-84
2021/03/02 05:51:40;;;;;;;20.67;10.93;;;;;;;2.51;61.33;101821.31;4380313;32;34238;-83
2021/03/02 05:54:09;;;;;;;21.12;11.48;;;;;;;2.49;61.74;101815.22;4378327;32;34068;-84
2021/03/02 05:56:38;;;;;;;26.87;12.43;;;;;;;2.44;61.69;101819.44;4378766;32;32759;-83
2021/03/02 05:59:06;;;;;;;22.13;11.40;;;;;;;2.74;60.55;101812.25;4378187;32;33346;-84
2021/03/02 06:01:35;;;;;;;19.30;10.93;;;;;;;2.64;61.30;101815.53;4377719;32;33230;-84
2021/03/02 06:04:04;;;;;;;25.35;12.60;;;;;;;2.65;62.15;101817.28;4392225;32;34295;-83
2021/03/02 06:06:31;;;;;;;28.38;11.88;;;;;;;2.78;61.92;101818.41;4377973;32;33469;-83
2021/03/02 06:08:58;;;;;;;27.42;12.05;;;;;;;2.92;61.56;101823.91;4379257;32;33506;-83
2021/03/02 06:11:31;;;;;;;37.17;13.73;;;;;;;2.67;62.79;101826.03;4390376;32;33811;-84
2021/03/02 06:14:37;;;;;;;29.20;12.35;;;;;;;2.80;62.44;101829.75;4382961;32;34142;-84
2021/03/02 06:17:06;;;;;;;23.52;11.50;;;;;;;2.65;62.15;101827.72;4335009;32;35704;-84
2021/03/02 06:19:40;;;;;;;27.10;12.07;;;;;;;2.81;61.50;101835.03;4354680;32;35790;-84
2021/03/02 06:22:30;;;;;;;23.20;12.57;;;;;;;2.91;61.70;101832.59;4371790;32;34625;-84
2021/03/02 06:24:58;;;;;;;29.40;14.10;;;;;;;3.04;61.66;101827.66;4418565;32;33694;-84
2021/03/02 06:27:25;;;;;;;25.60;12.57;;;;;;;3.16;61.44;101832.22;4385771;32;32632;-83
2021/03/02 06:30:13;;;;;;;24.23;12.48;;;;;;;3.21;61.67;101827.97;4393252;32;33708;-83
2021/03/02 06:32:48;;;;;;;22.87;12.63;;;;;;;3.33;61.93;101825.59;4393574;32;34095;-82
2021/03/02 06:35:31;;;;;;;27.10;13.77;;;;;;;3.39;62.84;101834.38;4391070;32;32649;-83
2021/03/02 06:38:00;;;;;;;27.95;15.07;;;;;;;3.44;63.63;101822.28;4397518;32;35463;-82
2021/03/02 06:40:45;;;;;;;28.80;14.18;;;;;;;3.71;63.02;101822.78;4385553;32;34412;-82
2021/03/02 06:43:39;;;;;;;34.33;16.90;;;;;;;4.04;62.66;101822.44;4394459;32;33603;-83
2021/03/02 06:46:07;;;;;;;;;;;;;;;4.01;63.25;101829.34;4407275;32;34321;-82
2021/03/02 06:48:55;;;;;;;26.73;12.45;;;;;;;4.37;62.52;101827.28;4404346;32;33506;-82
2021/03/02 06:51:34;;;;;;;26.55;12.68;;;;;;;4.12;62.81;101827.75;4404138;32;33598;-83
2021/03/02 06:54:10;;;;;;;35.17;13.80;;;;;;;4.19;62.73;101834.84;4394308;32;33848;-82
2021/03/02 06:56:40;;;;;;;28.33;13.60;;;;;;;4.36;62.59;101829.84;4369463;32;33143;-83
2021/03/02 06:59:18;;;;;;;31.23;13.18;;;;;;;4.55;62.58;101838.81;4381141;32;33831;-82
2021/03/02 07:01:48;;;;;;;32.67;14.85;;;;;;;4.42;63.41;101834.31;4394318;32;34740;-83
2021/03/02 07:04:21;;;;;;;32.03;14.07;;;;;;;4.70;62.68;101836.44;4395992;32;34194;-82
2021/03/02 07:06:54;;;;;;;27.42;13.18;;;;;;;4.87;61.82;101834.91;4393515;32;34178;-82
2021/03/02 07:09:24;;;;;;;29.02;13.45;;;;;;;5.00;62.05;101835.94;4382208;32;32905;-82
2021/03/02 07:11:53;;;;;;;27.50;13.02;;;;;;;5.29;61.62;101833.63;4393106;32;35934;-82
2021/03/02 07:14:20;;;;;;;28.10;12.40;;;;;;;5.28;61.31;101834.50;4386793;32;34577;-82
2021/03/02 07:16:51;;;;;;;27.05;13.13;;;;;;;5.15;61.79;101835.22;4406279;32;35113;-82
2021/03/02 07:19:21;;;;;;;28.42;12.95;;;;;;;5.30;62.11;101845.84;4393240;32;33897;-83
2021/03/02 07:21:50;;;;;;;31.02;12.98;;;;;;;5.60;61.19;101842.69;4389725;32;33445;-82
2021/03/02 07:24:19;;;;;;;27.02;13.30;;;;;;;5.89;60.58;101842.94;4371845;32;34288;-82
2021/03/02 07:26:49;;;;;;;35.33;13.80;;;;;;;6.16;59.87;101846.66;4381117;32;33338;-82
2021/03/02 07:29:16;;;;;;;24.58;13.23;;;;;;;6.31;59.55;101851.13;4358150;32;34527;-82
2021/03/02 07:31:44;;;;;;;26.67;13.07;;;;;;;6.63;59.48;101852.19;4385371;32;34004;-82
2021/03/02 07:34:11;;;;;;;26.17;12.80;;;;;;;6.75;58.60;101846.13;4382555;32;33409;-84
2021/03/02 07:36:41;;;;;;;24.73;12.18;;;;;;;7.10;58.26;101841.00;4363371;32;34762;-83
2021/03/02 07:39:18;;;;;;;27.27;12.73;;;;;;;7.29;57.29;101844.56;4388064;32;35575;-84
2021/03/02 07:41:49;;;;;;;26.77;14.43;;;;;;;7.22;57.25;101845.44;4385500;32;33294;-84
2021/03/02 07:44:19;;;;;;;22.27;11.90;;;;;;;7.47;56.81;101832.34;4385142;32;34318;-83
2021/03/02 07:46:55;;;;;;;35.63;15.52;;;;;;;7.79;57.09;101838.50;4389994;32;32856;-84
2021/03/02 07:49:31;;;;;;;29.58;13.48;;;;;;;8.00;55.71;101840.25;4397347;32;33944;-84
2021/03/02 07:52:02;;;;;;;24.67;13.18;;;;;;;8.02;55.99;101842.88;4383424;32;33470;-84
2021/03/02 07:54:33;;;;;;;27.73;13.30;;;;;;;7.90;56.97;101847.28;4385883;32;34438;-84
2021/03/02 07:57:13;;;;;;;27.27;13.23;;;;;;;8.06;55.71;101848.13;4381631;32;34219;-84
2021/03/02 07:59:44;;;;;;;24.67;12.95;;;;;;;8.30;55.77;101846.34;4390902;32;33656;-84
2021/03/02 08:02:17;;;;;;;25.52;12.82;;;;;;;8.17;55.71;101840.25;4378912;32;33795;-84
2021/03/02 08:04:49;;;;;;;27.55;12.90;;;;;;;8.49;54.71;101831.44;4390146;32;33596;-83
2021/03/02 08:07:18;;;;;;;25.27;13.35;;;;;;;8.68;53.84;101838.38;4361402;32;34995;-83
2021/03/02 08:09:46;;;;;;;42.45;13.95;;;;;;;8.76;53.54;101836.59;4381574;32;34479;-84
2021/03/02 08:12:27;;;;;;;27.05;13.23;;;;;;;9.13;53.20;101841.72;4371621;32;34665;-84
2021/03/02 08:14:56;;;;;;;20.45;12.55;;;;;;;9.31;52.69;101830.22;4385250;32;32950;-83
2021/03/02 08:17:25;;;;;;;25.33;11.65;;;;;;;9.39;52.05;101829.25;4388985;32;33101;-83
2021/03/02 08:20:10;;;;;;;21.90;11.38;;;;;;;9.49;51.89;101830.06;4377167;32;35113;-85
2021/03/02 08:22:44;;;;;;;21.27;11.77;;;;;;;9.47;52.36;101827.44;4355944;32;34635;-84
2021/03/02 08:25:24;;;;;;;24.12;13.20;;;;;;;9.46;52.69;101827.47;4388870;32;33621;-84
2021/03/02 08:27:56;;;;;;;27.42;12.25;;;;;;;9.23;53.09;101827.59;4377212;32;33150;-84
2021/03/02 08:30:39;;;;;;;22.80;12.48;;;;;;;9.63;51.99;101828.19;4368224;32;36045;-84
2021/03/02 08:33:10;;;;;;;18.92;10.13;;;;;;;9.91;51.26;101822.72;4391583;32;33420;-84
2021/03/02 08:35:41;;;;;;;17.83;10.77;;;;;;;9.92;51.79;101822.72;4368472;32;34613;-83
2021/03/02 08:38:12;;;;;;;19.95;11.20;;;;;;;10.17;50.96;101818.06;4365553;32;35239;-84
2021/03/02 08:40:42;;;;;;;20.23;11.90;;;;;;;10.26;51.11;101819.78;4378744;32;33191;-84
2021/03/02 08:43:16;;;;;;;21.05;12.27;;;;;;;10.43;51.91;101817.81;4378484;32;33658;-84
2021/03/02 08:45:43;;;;;;;20.37;13.07;;;;;;;10.90;48.65;101813.75;4365525;32;34313;-83
2021/03/02 08:48:12;;;;;;;21.20;11.65;;;;;;;11.01;48.81;101814.50;4378019;32;33571;-84
2021/03/02 08:50:40;;;;;;;23.05;12.25;;;;;;;10.72;50.31;101819.25;4378413;32;34522;-84
2021/03/02 08:53:28;;;;;;;22.73;12.07;;;;;;;11.23;50.01;101801.84;4378341;32;33876;-84
2021/03/02 08:55:56;;;;;;;22.48;12.25;;;;;;;11.37;47.11;101808.69;4394780;32;35365;-84
2021/03/02 08:58:31;;;;;;;19.85;11.68;;;;;;;11.12;48.28;101800.25;4377757;32;32937;-84
2021/03/02 09:01:13;;;;;;;22.77;12.63;;;;;;;11.28;47.70;101799.13;4369109;32;34514;-84
2021/03/02 09:03:43;;;;;;;23.52;12.13;;;;;;;11.78;46.74;101794.81;4377992;32;33696;-84
2021/03/02 09:06:11;;;;;;;21.90;12.23;;;;;;;11.99;45.85;101797.13;4378337;32;33686;-84
2021/03/02 09:08:49;;;;;;;24.80;13.62;;;;;;;12.12;46.37;101800.44;4390697;32;33429;-84
2021/03/02 09:11:26;;;;;;;23.77;13.43;;;;;;;12.49;45.03;101781.19;4391563;32;33761;-84
2021/03/02 09:13:55;;;;;;;25.73;14.48;;;;;;;12.69;43.64;101786.94;4379415;32;33705;-84
2021/03/02 09:16:48;;;;;;;23.40;13.57;;;;;;;12.68;43.74;101779.03;4379896;32;33681;-84
2021/03/02 09:19:20;;;;;;;23.05;13.93;;;;;;;12.86;43.14;101781.28;4392361;32;34340;-84
2021/03/02 09:21:51;;;;;;;24.25;13.80;;;;;;;13.15;42.51;101779.75;4389461;32;34634;-84
2021/03/02 09:24:40;;;;;;;22.73;14.00;;;;;;;13.30;43.17;101772.37;4396448;32;33744;-84
2021/03/02 09:27:15;;;;;;;22.70;13.62;;;;;;;13.01;42.64;101773.00;4382294;32;33546;-84
2021/03/02 09:29:52;;;;;;;24.98;13.25;;;;;;;13.11;42.73;101764.84;4382342;32;33150;-84
2021/03/02 09:32:31;;;;;;;24.20;13.93;;;;;;;13.62;40.96;101769.81;4392053;32;33672;-84
2021/03/02 09:35:01;;;;;;;22.60;14.25;;;;;;;13.28;41.79;101770.62;4394726;32;33402;-84
2021/03/02 09:37:29;;;;;;;22.58;13.85;;;;;;;13.31;42.68;101771.44;4394529;32;33678;-84
2021/03/02 09:40:09;;;;;;;24.52;13.60;;;;;;;13.45;43.52;101765.81;4383023;32;33966;-84
2021/03/02 09:42:39;;;;;;;25.50;13.68;;;;;;;14.02;41.00;101765.25;4402947;32;34528;-84
2021/03/02 09:45:12;;;;;;;25.15;15.60;;;;;;;14.08;41.69;101765.06;4404043;32;33707;-84
2021/03/02 09:47:42;;;;;;;22.52;15.18;;;;;;;14.08;41.18;101764.19;4382509;32;34397;-84
2021/03/02 09:50:20;;;;;;;25.00;14.52;;;;;;;14.09;40.23;101769.47;4395291;32;34204;-84
2021/03/02 09:52:49;;;;;;;24.20;14.57;;;;;;;14.09;41.01;101771.25;4379587;32;34393;-84
2021/03/02 09:55:20;;;;;;;21.60;14.45;;;;;;;14.37;40.08;101771.38;4390173;32;34359;-84
2021/03/02 09:58:07;;;;;;;21.30;13.60;;;;;;;14.25;40.45;101777.03;4407390;32;33769;-84
2021/03/02 10:00:45;;;;;;;23.52;13.88;;;;;;;14.47;39.83;101772.84;4394496;32;33253;-84
2021/03/02 10:03:22;;;;;;;25.60;14.55;;;;;;;14.78;39.08;101766.69;4406808;32;33350;-84
2021/03/02 10:05:59;;;;;;;25.00;14.95;;;;;;;14.78;40.25;101769.34;4382389;32;33711;-84
2021/03/02 10:08:47;;;;;;;28.05;15.25;;;;;;;15.26;38.65;101764.28;4397679;32;35226;-84
2021/03/02 10:11:14;;;;;;;19.70;13.27;;;;;;;15.29;37.45;101766.88;4395163;32;33261;-84
2021/03/02 10:13:45;;;;;;;25.40;13.35;;;;;;;15.08;37.99;101765.72;4391902;32;34183;-84
2021/03/02 10:16:13;;;;;;;24.52;13.95;;;;;;;14.85;37.90;101779.72;4407075;32;32674;-84
2021/03/02 10:18:45;;;;;;;21.92;13.73;;;;;;;15.25;37.72;101767.00;4394608;32;33726;-85
2021/03/02 10:21:13;;;;;;;;;;;;;;;15.29;37.89;101769.53;4379387;32;35036;-84
2021/03/02 10:23:52;;;;;;;21.05;13.18;;;;;;;14.86;38.03;101770.00;4391599;32;33960;-84
2021/03/02 10:26:31;;;;;;;24.02;14.05;;;;;;;15.44;37.34;101768.16;4366965;32;34351;-84
2021/03/02 10:28:59;;;;;;;17.77;13.38;;;;;;;15.31;37.60;101762.34;4379438;32;35528;-84
2021/03/02 10:31:27;;;;;;;20.25;13.10;;;;;;;15.52;38.05;101766.09;4379414;32;33735;-85
2021/03/02 10:33:55;;;;;;;21.90;13.60;;;;;;;15.16;37.98;101760.19;4391960;32;33683;-84
2021/03/02 10:36:27;;;;;;;22.52;14.25;;;;;;;15.68;36.89;101749.66;4367362;32;34859;-84
2021/03/02 10:38:57;;;;;;;23.65;13.88;;;;;;;15.37;38.13;101745.31;4365903;32;34655;-85
2021/03/02 10:41:26;;;;;;;21.00;13.45;;;;;;;16.10;36.96;101742.84;4366816;32;33478;-84
2021/03/02 10:43:54;;;;;;;28.55;16.30;;;;;;;15.67;37.36;101739.94;4391288;32;34188;-84
2021/03/02 10:46:25;;;;;;;24.25;15.70;;;;;;;15.71;36.77;101749.53;4379398;32;33911;-84
2021/03/02 10:48:53;;;;;;;23.60;13.93;;;;;;;16.11;37.72;101733.91;4379285;32;33004;-85
2021/03/02 10:51:21;;;;;;;20.73;13.77;;;;;;;16.62;36.44;101729.38;4366326;32;35219;-84
2021/03/02 10:53:49;;;;;;;20.35;12.85;;;;;;;16.42;36.84;101727.44;4378543;32;33837;-84
2021/03/02 10:56:17;;;;;;;15.93;10.48;;;;;;;16.77;35.02;101718.16;4366913;32;34621;-84
2021/03/02 10:58:45;;;;;;;15.88;10.63;;;;;;;16.83;32.58;101722.38;4377310;32;33324;-85
2021/03/02 11:01:13;;;;;;;18.17;9.80;;;;;;;17.04;32.88;101716.19;4370526;32;33275;-84
2021/03/02 11:03:44;;;;;;;14.23;8.75;;;;;;;16.64;33.99;101712.38;4379229;32;34566;-84
2021/03/02 11:06:12;;;;;;;11.45;8.00;;;;;;;17.12;30.91;101711.41;4373567;32;33690;-85
2021/03/02 11:09:02;;;;;;;10.75;7.70;;;;;;;17.05;30.86;101712.59;4391467;32;34626;-84
2021/03/02 11:11:30;;;;;;;11.75;7.72;;;;;;;17.05;30.26;101706.38;4378987;32;33292;-84
2021/03/02 11:13:58;;;;;;;12.37;8.63;;;;;;;16.38;31.83;101713.38;4379035;32;33280;-85
2021/03/02 11:16:25;;;;;;;15.98;8.80;;;;;;;16.88;31.53;101701.72;4390957;32;33307;-84
2021/03/02 11:18:54;;;;;;;12.40;7.65;;;;;;;16.95;30.69;101697.87;4392954;32;33972;-85
2021/03/02 11:21:22;;;;;;;11.07;7.37;;;;;;;16.77;31.14;101698.59;4386533;32;33471;-85
2021/03/02 11:23:50;;;;;;;10.63;7.93;;;;;;;17.15;29.16;101700.59;4382705;32;33774;-84
2021/03/02 11:26:17;;;;;;;12.20;8.02;;;;;;;17.38;29.60;101698.78;4376806;32;34995;-85
2021/03/02 11:28:45;;;;;;;13.57;8.52;;;;;;;17.26;30.63;101700.16;4370003;32;34370;-85
2021/03/02 11:31:16;;;;;;;17.23;7.78;;;;;;;17.45;29.53;101689.56;4395045;32;35052;-84
2021/03/02 11:33:46;;;;;;;10.10;8.15;;;;;;;17.76;30.32;101677.63;4395192;32;35023;-84
2021/03/02 11:36:14;;;;;;;9.98;7.35;;;;;;;17.68;27.88;101691.28;4402445;32;33740;-85